Time;durP1;ratioP1;P1;durP2;ratioP2;P2;SDS_P1;SDS_P2;PMS_P1;PMS_P2;Temp;Humidity;BMP_temperature;BMP_pressure;BME280_temperature;BME280_humidity;BME280_pressure;Samples;Min_cycle;Max_cycle;Signal;HPM_P1;HPM_P2
2021/05/27 00:00:00;;;;;;;1.60;0.80;;;23.30;38.20;;;;;;5012822;28;20462;-64
2021/05/27 00:02:26;;;;;;;1.63;0.77;;;23.30;38.20;;;;;;5013190;28;20026;-63
2021/05/27 00:04:53;;;;;;;1.80;1.08;;;23.30;38.20;;;;;;5012666;28;20026;-64
2021/05/27 00:07:18;;;;;;;2.53;1.33;;;23.30;38.20;;;;;;5012683;28;20041;-64
2021/05/27 00:09:44;;;;;;;2.30;0.82;;;23.30;38.20;;;;;;5011693;28;20117;-64
2021/05/27 00:12:10;;;;;;;3.15;1.00;;;23.30;38.20;;;;;;5011696;28;20505;-64
2021/05/27 00:14:36;;;;;;;2.47;1.23;;;23.30;38.20;;;;;;4995756;28;20032;-63
2021/05/27 00:17:02;;;;;;;1.33;0.98;;;23.30;38.20;;;;;;5011380;28;20026;-64
2021/05/27 00:19:28;;;;;;;2.50;1.33;;;23.30;38.20;;;;;;5012806;28;20512;-63
2021/05/27 00:21:53;;;;;;;2.47;1.00;;;23.30;38.20;;;;;;5012969;28;20041;-63
2021/05/27 00:24:19;;;;;;;2.10;0.98;;;23.30;38.20;;;;;;5012130;28;20449;-63
2021/05/27 00:26:45;;;;;;;2.60;1.20;;;23.30;38.20;;;;;;5011795;28;20049;-64
2021/05/27 00:29:11;;;;;;;2.92;1.10;;;23.20;38.10;;;;;;5011510;28;20085;-64
2021/05/27 00:31:37;;;;;;;1.80;1.02;;;23.20;38.20;;;;;;5012957;28;20026;-64
2021/05/27 00:34:03;;;;;;;1.92;1.15;;;23.20;38.10;;;;;;5012729;28;20377;-64
2021/05/27 00:36:30;;;;;;;2.22;1.00;;;23.20;38.10;;;;;;5011231;28;20036;-64
2021/05/27 00:38:56;;;;;;;2.88;1.15;;;23.20;38.10;;;;;;5012120;28;20445;-64
2021/05/27 00:41:25;;;;;;;2.70;1.40;;;23.20;38.20;;;;;;5011677;28;20030;-63
2021/05/27 00:43:51;;;;;;;3.00;1.10;;;23.20;38.20;;;;;;5012725;28;20117;-64
2021/05/27 00:46:17;;;;;;;1.80;1.20;;;23.20;38.20;;;;;;5012684;28;20109;-64
2021/05/27 00:49:00;;;;;;;2.10;0.95;;;23.20;38.30;;;;;;4995643;28;20026;-65
2021/05/27 00:51:28;;;;;;;2.78;1.10;;;23.20;38.20;;;;;;5012829;28;20030;-63
2021/05/27 00:53:56;;;;;;;1.90;0.98;;;23.20;38.30;;;;;;5012037;28;20088;-64
2021/05/27 00:56:22;;;;;;;2.25;1.20;;;23.10;38.20;;;;;;5011924;28;20040;-66
2021/05/27 00:58:49;;;;;;;1.60;0.80;;;23.10;38.20;;;;;;5014062;28;20088;-64
2021/05/27 01:01:16;;;;;;;2.17;1.30;;;23.10;38.30;;;;;;5013815;28;20046;-64
2021/05/27 01:03:42;;;;;;;1.83;1.05;;;23.10;38.30;;;;;;5012355;28;20468;-64
2021/05/27 01:06:08;;;;;;;1.92;0.90;;;23.10;38.30;;;;;;4994364;28;20022;-63
2021/05/27 01:08:36;;;;;;;1.90;1.10;;;23.10;38.30;;;;;;5011852;28;20032;-63
2021/05/27 01:11:04;;;;;;;2.33;1.10;;;23.10;38.30;;;;;;4998474;28;20025;-63
2021/05/27 01:13:32;;;;;;;2.88;1.23;;;23.10;38.30;;;;;;5015139;28;20029;-63
2021/05/27 01:15:59;;;;;;;1.83;1.13;;;23.10;38.30;;;;;;5006710;28;20427;-63
2021/05/27 01:18:26;;;;;;;2.50;1.05;;;23.10;38.30;;;;;;5005432;28;20794;-63
2021/05/27 01:20:55;;;;;;;1.73;0.90;;;23.10;39.00;;;;;;5015262;28;20425;-63
2021/05/27 01:23:22;;;;;;;1.13;0.93;;;23.10;38.40;;;;;;5015801;28;20335;-63
2021/05/27 01:25:51;;;;;;;2.90;1.23;;;23.10;38.40;;;;;;5016204;28;20034;-63
2021/05/27 01:28:18;;;;;;;2.20;1.33;;;23.00;38.30;;;;;;5016843;28;20050;-63
2021/05/27 01:30:44;;;;;;;1.58;0.90;;;23.00;38.40;;;;;;5015134;28;20037;-63
2021/05/27 01:33:38;;;;;;;2.65;1.20;;;23.00;38.40;;;;;;5013471;28;20041;-64
2021/05/27 01:36:09;;;;;;;1.35;1.00;;;23.00;38.40;;;;;;5015276;28;20036;-63
2021/05/27 01:38:36;;;;;;;1.35;0.90;;;23.00;38.40;;;;;;5014062;28;20208;-63
2021/05/27 01:41:04;;;;;;;2.05;1.02;;;23.00;38.50;;;;;;5011825;28;20030;-63
2021/05/27 01:43:31;;;;;;;1.98;1.00;;;23.00;39.10;;;;;;5003154;28;20022;-63
2021/05/27 01:45:58;;;;;;;1.67;0.90;;;23.00;38.50;;;;;;5013978;28;20041;-64
2021/05/27 01:48:24;;;;;;;1.77;0.95;;;23.00;38.50;;;;;;5015209;28;20116;-63
2021/05/27 01:50:50;;;;;;;1.42;0.93;;;23.00;38.50;;;;;;5013660;28;20030;-64
2021/05/27 01:53:22;;;;;;;2.33;0.98;;;22.90;38.50;;;;;;5015695;28;20104;-63
2021/05/27 01:55:49;;;;;;;1.50;1.00;;;22.90;38.50;;;;;;5014827;28;20402;-63
2021/05/27 01:58:16;;;;;;;1.55;0.95;;;22.90;38.50;;;;;;5013792;28;20022;-63
2021/05/27 02:00:45;;;;;;;1.75;0.90;;;22.90;38.50;;;;;;5014904;28;20345;-63
2021/05/27 02:03:14;;;;;;;2.35;1.15;;;22.90;38.50;;;;;;5014460;28;20117;-63
2021/05/27 02:05:43;;;;;;;2.95;1.05;;;22.90;38.60;;;;;;5014967;28;20022;-64
2021/05/27 02:08:11;;;;;;;2.75;1.20;;;22.90;38.60;;;;;;5011850;28;20413;-63
2021/05/27 02:10:42;;;;;;;1.50;0.90;;;22.90;38.60;;;;;;4998442;28;20033;-63
2021/05/27 02:13:09;;;;;;;1.38;0.82;;;22.90;38.60;;;;;;5013730;28;20037;-63
2021/05/27 02:15:36;;;;;;;2.25;1.10;;;22.80;38.50;;;;;;5014934;28;20472;-63
2021/05/27 02:18:02;;;;;;;2.33;1.02;;;22.80;38.60;;;;;;5014751;28;20026;-63
2021/05/27 02:20:28;;;;;;;1.45;1.10;;;22.90;38.60;;;;;;5013486;28;20018;-63
2021/05/27 02:22:54;;;;;;;1.20;0.80;;;22.90;38.70;;;;;;5012189;28;20088;-62
2021/05/27 02:25:37;;;;;;;2.38;1.08;;;22.80;38.60;;;;;;5013399;28;20037;-62
2021/05/27 02:28:03;;;;;;;2.20;1.00;;;22.80;38.70;;;;;;5012121;28;20457;-63
2021/05/27 02:30:31;;;;;;;2.20;1.20;;;22.80;38.70;;;;;;5012127;28;20062;-63
2021/05/27 02:32:59;;;;;;;2.40;0.95;;;22.80;39.30;;;;;;5013497;28;20112;-64
2021/05/27 02:35:27;;;;;;;1.63;0.82;;;22.80;38.70;;;;;;5001989;28;20113;-64
2021/05/27 02:37:53;;;;;;;1.40;0.90;;;22.80;38.70;;;;;;5013838;28;20128;-63
2021/05/27 02:40:21;;;;;;;2.05;0.95;;;22.80;38.70;;;;;;5013676;28;20026;-63
2021/05/27 02:42:49;;;;;;;1.58;0.90;;;22.80;38.70;;;;;;5013395;28;20108;-63
2021/05/27 02:45:16;;;;;;;1.70;0.90;;;22.80;38.80;;;;;;5012683;28;20029;-63
2021/05/27 02:47:45;;;;;;;2.10;0.85;;;22.70;38.70;;;;;;5012972;28;20026;-63
2021/05/27 02:50:12;;;;;;;2.10;1.10;;;22.70;38.70;;;;;;5012074;28;20041;-63
2021/05/27 02:52:37;;;;;;;1.98;0.90;;;22.80;38.80;;;;;;5013027;28;20041;-64
2021/05/27 02:55:04;;;;;;;1.67;0.80;;;22.80;38.80;;;;;;5014067;28;20156;-64
2021/05/27 02:57:32;;;;;;;1.52;0.95;;;22.70;38.80;;;;;;5012203;28;20180;-63
2021/05/27 02:59:58;;;;;;;1.30;0.70;;;22.70;38.80;;;;;;5012146;28;20521;-63
2021/05/27 03:02:39;;;;;;;1.80;1.00;;;22.70;38.80;;;;;;4994975;28;20172;-66
2021/05/27 03:05:07;;;;;;;1.13;0.70;;;22.70;38.80;;;;;;5012278;28;20029;-63
2021/05/27 03:07:36;;;;;;;1.90;0.80;;;22.70;38.90;;;;;;5014268;28;20087;-63
2021/05/27 03:10:04;;;;;;;1.27;0.70;;;22.70;38.90;;;;;;5011512;28;20372;-63
2021/05/27 03:12:30;;;;;;;1.35;0.88;;;22.70;38.90;;;;;;5012234;28;20345;-62
2021/05/27 03:14:56;;;;;;;2.28;1.10;;;22.70;38.90;;;;;;5012214;28;20025;-63
2021/05/27 03:17:28;;;;;;;2.03;1.35;;;22.70;38.90;;;;;;5011692;28;20341;-63
2021/05/27 03:19:54;;;;;;;1.73;0.80;;;22.60;38.90;;;;;;5012198;28;20030;-63
2021/05/27 03:22:21;;;;;;;0.80;0.60;;;22.60;38.90;;;;;;5011817;28;20068;-63
2021/05/27 03:24:47;;;;;;;1.30;0.70;;;22.60;38.90;;;;;;5013391;28;20172;-63
2021/05/27 03:27:13;;;;;;;1.33;0.77;;;22.60;39.00;;;;;;5011403;28;20124;-63
2021/05/27 03:29:40;;;;;;;1.92;0.70;;;22.60;38.90;;;;;;5001774;28;20128;-63
2021/05/27 03:32:06;;;;;;;1.00;0.65;;;22.60;39.00;;;;;;4995561;28;20163;-64
2021/05/27 03:34:33;;;;;;;1.75;0.90;;;22.60;39.00;;;;;;5011406;28;20404;-64
2021/05/27 03:36:59;;;;;;;2.17;0.90;;;22.60;39.00;;;;;;4995962;28;20041;-64
2021/05/27 03:39:26;;;;;;;1.88;1.10;;;22.60;39.00;;;;;;4996721;28;20033;-64
2021/05/27 03:41:53;;;;;;;0.95;0.70;;;22.60;39.10;;;;;;5011590;28;20400;-63
2021/05/27 03:44:19;;;;;;;1.38;0.98;;;22.60;39.00;;;;;;5013000;28;20044;-63
2021/05/27 03:46:46;;;;;;;2.00;0.82;;;22.60;39.00;;;;;;5012588;28;20033;-64
2021/05/27 03:49:13;;;;;;;1.90;1.00;;;22.60;39.00;;;;;;5011345;28;20437;-63
2021/05/27 03:51:39;;;;;;;1.50;0.80;;;22.60;39.10;;;;;;5012375;28;20026;-63
2021/05/27 03:54:06;;;;;;;1.75;0.90;;;22.50;39.00;;;;;;5011071;28;20037;-63
2021/05/27 03:56:33;;;;;;;2.40;0.98;;;22.50;39.00;;;;;;4995176;28;20029;-63
2021/05/27 04:02:07;;;;;;;1.88;0.82;;;22.50;39.00;;;;;;5010462;28;20030;-64
2021/05/27 04:07:30;;;;;;;1.20;0.70;;;22.50;39.10;;;;;;5014584;28;20068;-64
2021/05/27 04:09:56;;;;;;;1.00;0.80;;;22.50;39.10;;;;;;5014445;28;20062;-63
2021/05/27 04:17:52;;;;;;;1.35;0.80;;;22.50;39.10;;;;;;5014681;28;20145;-63
2021/05/27 04:20:18;;;;;;;1.63;0.80;;;22.50;39.10;;;;;;5012794;28;20460;-64
2021/05/27 04:22:44;;;;;;;3.40;1.00;;;22.50;39.20;;;;;;5014478;28;20106;-64
2021/05/27 04:25:12;;;;;;;1.77;0.90;;;22.40;39.10;;;;;;5012428;28;20034;-63
2021/05/27 04:27:39;;;;;;;2.20;1.20;;;22.40;39.20;;;;;;5011521;28;20442;-63
2021/05/27 04:30:16;;;;;;;1.20;0.65;;;22.40;39.20;;;;;;5014466;28;20030;-63
2021/05/27 04:33:11;;;;;;;1.30;0.80;;;22.40;39.20;;;;;;5014376;28;20033;-64
2021/05/27 04:35:39;;;;;;;1.30;0.80;;;22.40;39.20;;;;;;5011479;28;20536;-63
2021/05/27 04:38:10;;;;;;;1.08;0.70;;;22.40;39.20;;;;;;5012687;28;20034;-63
2021/05/27 04:40:39;;;;;;;1.75;0.80;;;22.40;39.30;;;;;;5012997;28;20088;-64
2021/05/27 04:43:06;;;;;;;1.85;0.98;;;22.40;39.20;;;;;;5013642;28;20037;-63
2021/05/27 04:45:32;;;;;;;0.80;0.70;;;22.40;39.30;;;;;;5017620;28;20029;-63
2021/05/27 04:47:59;;;;;;;1.35;0.68;;;22.40;39.30;;;;;;5017684;28;20032;-63
2021/05/27 04:50:26;;;;;;;1.52;0.75;;;22.40;39.30;;;;;;5017133;28;20030;-63
2021/05/27 04:52:52;;;;;;;1.67;0.73;;;22.40;39.30;;;;;;5016787;28;20068;-63
2021/05/27 04:55:19;;;;;;;1.52;0.77;;;22.40;39.30;;;;;;5013834;28;20034;-63
2021/05/27 04:57:46;;;;;;;1.50;0.73;;;22.40;39.30;;;;;;5017603;28;20034;-64
2021/05/27 05:00:21;;;;;;;0.90;0.70;;;22.40;39.30;;;;;;4999833;28;20099;-63
2021/05/27 05:02:47;;;;;;;1.63;0.70;;;22.40;39.30;;;;;;5016624;28;20176;-63
2021/05/27 05:05:15;;;;;;;1.60;0.85;;;22.40;39.40;;;;;;5016505;28;20497;-62
2021/05/27 05:07:42;;;;;;;1.33;0.75;;;22.40;39.40;;;;;;5017085;28;20109;-63
2021/05/27 05:10:13;;;;;;;1.45;0.80;;;22.40;39.40;;;;;;5016345;28;20038;-63
2021/05/27 05:12:51;;;;;;;1.38;0.75;;;22.40;39.40;;;;;;5017585;28;20049;-63
2021/05/27 05:15:25;;;;;;;0.93;0.60;;;22.30;39.40;;;;;;5014113;28;20043;-63
2021/05/27 05:17:56;;;;;;;1.48;0.70;;;22.30;39.40;;;;;;5016939;28;20025;-63
2021/05/27 05:20:24;;;;;;;0.88;0.60;;;22.30;39.40;;;;;;5015923;28;20026;-64
2021/05/27 05:22:51;;;;;;;0.88;0.47;;;22.30;39.40;;;;;;5017504;28;20030;-63
2021/05/27 05:25:18;;;;;;;1.15;0.70;;;22.30;39.40;;;;;;5017196;28;20349;-64
2021/05/27 05:27:44;;;;;;;0.75;0.65;;;22.30;39.40;;;;;;5016542;28;20112;-63
2021/05/27 05:30:12;;;;;;;1.10;0.60;;;22.30;39.40;;;;;;5016869;28;20133;-64
2021/05/27 05:32:37;;;;;;;1.13;0.65;;;22.30;39.50;;;;;;5016265;28;20534;-63
2021/05/27 05:35:05;;;;;;;1.85;0.70;;;22.30;39.50;;;;;;5016484;28;20131;-63
2021/05/27 05:37:31;;;;;;;1.00;0.60;;;22.30;39.50;;;;;;5017030;28;20438;-64
2021/05/27 05:39:57;;;;;;;1.73;0.90;;;22.30;39.50;;;;;;5017006;28;20105;-64
2021/05/27 05:42:23;;;;;;;1.13;1.02;;;22.30;39.50;;;;;;5015901;28;20034;-63
2021/05/27 05:44:49;;;;;;;1.20;0.70;;;22.30;39.50;;;;;;5016993;28;20357;-63
2021/05/27 05:47:15;;;;;;;2.00;0.80;;;22.30;39.50;;;;;;5016085;28;20053;-63
2021/05/27 05:49:41;;;;;;;2.35;0.85;;;22.30;39.50;;;;;;5015380;28;20041;-63
2021/05/27 05:52:06;;;;;;;1.83;0.80;;;22.30;40.20;;;;;;5015009;28;20083;-63
2021/05/27 05:54:32;;;;;;;0.95;0.57;;;22.30;39.60;;;;;;5016313;28;20104;-63
2021/05/27 05:56:58;;;;;;;2.05;0.90;;;22.30;39.60;;;;;;5016734;28;20105;-64
2021/05/27 05:59:24;;;;;;;1.63;0.98;;;22.30;39.60;;;;;;5016200;28;20040;-64
2021/05/27 06:01:51;;;;;;;2.50;0.93;;;22.30;39.70;;;;;;5016214;28;20037;-63
2021/05/27 06:04:17;;;;;;;1.25;0.68;;;22.30;39.70;;;;;;5013633;28;20373;-63
2021/05/27 06:06:53;;;;;;;1.17;0.70;;;22.30;39.70;;;;;;5014765;28;20045;-64
2021/05/27 06:09:19;;;;;;;2.10;0.73;;;22.20;39.70;;;;;;5011754;28;20088;-65
2021/05/27 06:11:45;;;;;;;2.00;0.85;;;22.20;39.70;;;;;;5013997;28;20022;-66
2021/05/27 06:14:11;;;;;;;1.10;0.68;;;22.30;39.80;;;;;;5014400;28;20130;-64
2021/05/27 06:16:37;;;;;;;1.45;0.75;;;22.30;39.80;;;;;;5012102;28;20026;-64
2021/05/27 06:19:03;;;;;;;0.98;0.50;;;22.20;39.80;;;;;;5014359;28;20030;-64
2021/05/27 06:21:36;;;;;;;2.17;0.80;;;22.20;39.80;;;;;;5014767;28;20060;-64
2021/05/27 06:24:09;;;;;;;1.50;0.80;;;22.20;39.90;;;;;;5013293;28;20037;-63
2021/05/27 06:26:36;;;;;;;1.50;0.80;;;22.20;39.90;;;;;;5014274;28;20038;-63
2021/05/27 06:29:02;;;;;;;2.92;1.00;;;22.20;40.00;;;;;;5013463;28;20053;-64
2021/05/27 06:31:28;;;;;;;1.15;0.73;;;22.20;39.90;;;;;;5014378;28;20044;-66
2021/05/27 06:33:54;;;;;;;1.05;0.63;;;22.20;39.90;;;;;;5011714;28;20037;-65
2021/05/27 06:36:21;;;;;;;1.38;0.80;;;22.20;40.00;;;;;;5008916;28;20358;-63
2021/05/27 06:38:47;;;;;;;1.50;0.70;;;22.20;40.00;;;;;;5014796;28;20408;-66
2021/05/27 06:41:18;;;;;;;1.63;0.90;;;22.20;40.10;;;;;;5014331;28;20033;-66
2021/05/27 06:43:45;;;;;;;3.17;0.90;;;22.20;40.10;;;;;;5013984;28;20038;-64
2021/05/27 06:46:10;;;;;;;2.13;1.02;;;22.20;40.10;;;;;;5014137;28;20330;-63
2021/05/27 06:48:36;;;;;;;2.50;0.90;;;22.20;40.10;;;;;;5014565;28;20037;-62
2021/05/27 06:51:02;;;;;;;1.83;0.88;;;22.20;40.10;;;;;;5013497;28;20088;-63
2021/05/27 06:53:28;;;;;;;2.63;1.10;;;22.20;40.10;;;;;;5014280;28;20026;-64
2021/05/27 06:55:54;;;;;;;1.98;1.10;;;22.20;40.10;;;;;;5014588;28;20030;-63
2021/05/27 06:58:20;;;;;;;1.73;0.80;;;22.20;40.10;;;;;;5014242;28;20010;-62
2021/05/27 07:00:46;;;;;;;1.58;0.90;;;22.10;40.10;;;;;;5014036;28;20437;-64
2021/05/27 07:03:12;;;;;;;2.70;1.40;;;22.20;40.10;;;;;;5013613;28;20578;-63
2021/05/27 07:05:38;;;;;;;2.30;1.27;;;22.10;40.10;;;;;;5013895;28;20441;-63
2021/05/27 07:08:06;;;;;;;3.10;1.58;;;22.10;40.10;;;;;;5010692;28;20034;-62
2021/05/27 07:10:32;;;;;;;2.78;1.60;;;22.10;40.10;;;;;;5011534;28;20121;-63
2021/05/27 07:13:00;;;;;;;3.78;1.88;;;22.10;40.20;;;;;;5013697;28;20052;-63
2021/05/27 07:15:27;;;;;;;2.67;1.88;;;22.10;40.20;;;;;;5009669;28;20370;-63
2021/05/27 07:17:53;;;;;;;2.55;1.88;;;22.10;40.20;;;;;;5012557;28;20057;-64
2021/05/27 07:20:20;;;;;;;4.45;1.90;;;22.20;40.20;;;;;;5013864;28;20025;-64
2021/05/27 07:22:47;;;;;;;2.63;1.92;;;22.10;40.20;;;;;;5013189;28;20017;-64
2021/05/27 07:25:13;;;;;;;2.97;2.10;;;22.10;40.20;;;;;;5013353;28;20030;-63
2021/05/27 07:27:40;;;;;;;3.92;2.35;;;22.10;40.20;;;;;;5013058;28;20050;-63
2021/05/27 07:30:07;;;;;;;3.17;2.28;;;22.10;40.20;;;;;;5012274;28;20057;-63
2021/05/27 07:32:33;;;;;;;3.30;2.58;;;22.10;40.20;;;;;;5014028;28;20063;-63
2021/05/27 07:34:59;;;;;;;3.47;2.30;;;22.10;40.20;;;;;;5013585;28;20029;-63
2021/05/27 07:37:26;;;;;;;3.67;2.97;;;22.10;40.20;;;;;;5013829;28;20088;-63
2021/05/27 07:39:51;;;;;;;3.83;2.92;;;22.10;40.30;;;;;;5012377;28;20068;-65
2021/05/27 07:42:18;;;;;;;5.60;3.58;;;22.10;40.30;;;;;;5009073;28;20049;-62
2021/05/27 07:44:44;;;;;;;4.88;3.30;;;22.10;40.30;;;;;;5012183;28;20030;-64
2021/05/27 07:47:09;;;;;;;4.20;2.88;;;22.10;40.30;;;;;;5013005;28;20030;-63
2021/05/27 07:49:35;;;;;;;5.45;2.72;;;22.10;40.40;;;;;;5014746;28;20057;-63
2021/05/27 07:52:01;;;;;;;3.78;2.95;;;22.10;40.40;;;;;;5013001;28;20433;-63
2021/05/27 07:54:28;;;;;;;4.32;2.65;;;22.10;40.40;;;;;;5014357;28;20404;-63
2021/05/27 07:56:54;;;;;;;4.25;2.78;;;22.10;40.40;;;;;;5013272;28;20062;-63
2021/05/27 07:59:22;;;;;;;3.78;2.53;;;22.10;40.40;;;;;;5013304;28;20365;-64
2021/05/27 08:01:49;;;;;;;3.38;2.58;;;22.10;40.40;;;;;;5013750;28;20022;-64
2021/05/27 08:04:15;;;;;;;4.40;3.00;;;22.10;40.40;;;;;;5008759;28;20034;-63
2021/05/27 08:06:41;;;;;;;3.30;2.67;;;22.10;40.40;;;;;;5012973;28;20061;-64
2021/05/27 08:09:07;;;;;;;3.60;2.78;;;22.10;40.40;;;;;;5012772;28;20318;-63
2021/05/27 08:11:43;;;;;;;5.40;3.67;;;22.10;40.40;;;;;;5013697;28;20211;-65
2021/05/27 08:14:09;;;;;;;4.70;3.72;;;22.10;40.40;;;;;;5012583;28;20350;-63
2021/05/27 08:16:35;;;;;;;4.90;3.95;;;22.10;40.40;;;;;;5013287;28;20038;-63
2021/05/27 08:19:02;;;;;;;6.05;4.20;;;22.10;40.40;;;;;;5013857;28;20408;-63
2021/05/27 08:21:28;;;;;;;4.80;3.88;;;22.10;40.50;;;;;;5013793;28;20462;-62
2021/05/27 08:23:54;;;;;;;4.00;3.42;;;22.10;40.50;;;;;;5010736;28;20350;-63
2021/05/27 08:26:20;;;;;;;4.78;3.80;;;22.10;40.50;;;;;;5013003;28;20030;-62
2021/05/27 08:28:47;;;;;;;4.80;3.60;;;22.10;40.50;;;;;;5011372;28;20061;-62
2021/05/27 08:31:16;;;;;;;4.43;3.35;;;22.10;40.50;;;;;;5014652;28;20063;-63
2021/05/27 08:33:42;;;;;;;5.15;3.75;;;22.10;40.50;;;;;;5032697;28;20109;-66
2021/05/27 08:36:08;;;;;;;4.53;3.55;;;22.00;40.40;;;;;;5017855;28;20414;-63
2021/05/27 08:38:35;;;;;;;4.88;3.72;;;22.00;40.40;;;;;;5012805;28;20041;-63
2021/05/27 08:41:01;;;;;;;4.72;4.18;;;22.00;40.50;;;;;;5014141;28;20026;-63
2021/05/27 08:43:28;;;;;;;5.18;4.00;;;22.00;40.50;;;;;;5012840;28;20030;-63
2021/05/27 08:45:56;;;;;;;4.45;3.78;;;22.00;40.50;;;;;;5011941;28;20025;-63
2021/05/27 08:48:22;;;;;;;5.22;4.18;;;22.10;40.60;;;;;;5012785;28;20036;-63
2021/05/27 08:50:48;;;;;;;5.85;4.88;;;22.00;40.50;;;;;;5012613;28;20345;-63
2021/05/27 08:53:16;;;;;;;6.03;5.03;;;22.00;40.50;;;;;;5013191;28;20375;-63
2021/05/27 08:55:45;;;;;;;5.75;4.78;;;22.00;40.60;;;;;;5007802;28;20049;-63
2021/05/27 08:58:13;;;;;;;6.68;4.90;;;22.00;40.60;;;;;;5012647;28;20366;-63
2021/05/27 09:00:38;;;;;;;6.47;5.10;;;22.00;40.60;;;;;;5012024;28;20146;-63
2021/05/27 09:03:06;;;;;;;6.32;5.13;;;22.00;40.70;;;;;;5012466;28;20528;-63
2021/05/27 09:05:36;;;;;;;6.32;5.38;;;22.00;40.70;;;;;;5012043;28;20026;-62
2021/05/27 09:08:03;;;;;;;5.55;4.97;;;22.00;40.70;;;;;;5009739;28;20044;-68
2021/05/27 09:10:48;;;;;;;5.57;4.50;;;22.10;40.80;;;;;;5013273;28;20048;-67
2021/05/27 09:13:19;;;;;;;5.28;4.53;;;22.10;40.90;;;;;;5013203;28;20112;-66
2021/05/27 09:15:50;;;;;;;5.57;4.90;;;22.10;41.00;;;;;;5012111;28;20061;-64
2021/05/27 09:18:32;;;;;;;5.72;4.47;;;22.10;41.10;;;;;;5014377;28;20450;-64
2021/05/27 09:20:58;;;;;;;5.35;4.68;;;22.10;41.10;;;;;;5013908;28;20358;-62
2021/05/27 09:23:24;;;;;;;6.97;5.57;;;22.10;41.20;;;;;;5013687;28;20069;-63
2021/05/27 09:26:15;;;;;;;5.38;4.85;;;22.10;41.30;;;;;;5012441;28;20054;-62
2021/05/27 09:28:43;;;;;;;6.82;5.22;;;22.10;41.30;;;;;;5007148;28;20113;-62
2021/05/27 09:31:12;;;;;;;7.43;5.72;;;22.10;41.30;;;;;;5016025;28;20461;-62
2021/05/27 09:33:40;;;;;;;7.55;5.88;;;22.10;41.30;;;;;;5015622;28;20080;-62
2021/05/27 09:36:08;;;;;;;6.88;5.43;;;22.10;41.40;;;;;;5017567;28;20417;-64
2021/05/27 09:38:39;;;;;;;6.13;5.25;;;22.10;41.40;;;;;;5016509;28;20030;-67
2021/05/27 09:41:21;;;;;;;6.35;5.22;;;22.10;41.40;;;;;;5017370;28;20030;-65
2021/05/27 09:43:52;;;;;;;6.63;5.03;;;22.10;41.40;;;;;;5017008;28;20083;-62
2021/05/27 09:46:20;;;;;;;8.50;5.82;;;22.10;41.40;;;;;;5017561;28;20100;-58
2021/05/27 09:49:01;;;;;;;7.15;5.68;;;22.10;41.40;;;;;;5016737;28;20040;-57
2021/05/27 09:51:28;;;;;;;9.10;6.20;;;22.10;41.40;;;;;;5013768;28;20037;-58
2021/05/27 09:53:55;;;;;;;7.47;6.07;;;22.10;41.40;;;;;;5013241;28;20034;-56
2021/05/27 09:56:38;;;;;;;9.98;7.20;;;22.10;41.50;;;;;;5012550;28;20041;-62
2021/05/27 09:59:05;;;;;;;7.85;6.68;;;22.20;41.70;;;;;;5014184;28;20060;-56
2021/05/27 10:01:31;;;;;;;10.73;7.57;;;22.20;41.80;;;;;;5012022;28;20381;-62
2021/05/27 10:04:12;;;;;;;9.63;8.10;;;22.30;41.90;;;;;;5012875;28;20022;-58
2021/05/27 10:06:40;;;;;;;8.00;7.20;;;22.30;41.90;;;;;;5013911;28;20050;-63
2021/05/27 10:09:08;;;;;;;9.55;7.43;;;22.30;41.90;;;;;;5014361;28;20107;-64
2021/05/27 10:11:35;;;;;;;9.15;8.25;;;22.30;41.90;;;;;;5012368;28;20037;-59
2021/05/27 10:14:01;;;;;;;9.60;8.50;;;22.40;41.90;;;;;;5012730;28;20346;-63
2021/05/27 10:16:27;;;;;;;9.05;8.13;;;22.40;42.00;;;;;;5011473;28;20057;-62
2021/05/27 10:18:55;;;;;;;8.63;7.72;;;22.50;41.90;;;;;;5015835;28;20065;-63
2021/05/27 10:21:22;;;;;;;10.23;7.78;;;22.60;41.90;;;;;;5013514;28;20029;-63
2021/05/27 10:23:49;;;;;;;7.85;6.97;;;22.60;41.70;;;;;;5013191;28;20030;-64
2021/05/27 10:26:15;;;;;;;7.28;6.32;;;22.70;41.50;;;;;;5013729;28;20034;-64
2021/05/27 10:28:47;;;;;;;13.40;5.97;;;22.80;41.40;;;;;;5013347;28;20096;-64
2021/05/27 10:31:15;;;;;;;7.80;6.45;;;22.90;41.30;;;;;;5015492;28;20193;-61
2021/05/27 10:33:42;;;;;;;6.95;5.88;;;23.00;41.30;;;;;;5012006;28;20145;-62
2021/05/27 10:36:10;;;;;;;5.97;5.38;;;23.10;41.20;;;;;;5013333;28;20034;-63
2021/05/27 10:38:39;;;;;;;7.00;5.88;;;23.10;41.00;;;;;;5013134;28;20029;-63
2021/05/27 10:41:07;;;;;;;7.00;5.75;;;23.30;40.80;;;;;;5011712;28;20088;-63
2021/05/27 10:43:33;;;;;;;6.38;5.45;;;23.30;40.60;;;;;;5011435;28;20041;-55
2021/05/27 10:45:59;;;;;;;9.63;4.40;;;23.50;40.40;;;;;;5012321;28;20030;-54
2021/05/27 10:48:45;;;;;;;4.55;3.03;;;23.60;40.00;;;;;;5012542;28;20045;-58
2021/05/27 10:51:31;;;;;;;3.53;3.00;;;23.60;39.60;;;;;;5025530;28;20038;-60
2021/05/27 10:54:07;;;;;;;5.32;3.15;;;23.60;39.20;;;;;;5009822;28;20121;-62
2021/05/27 10:56:37;;;;;;;8.02;3.88;;;23.60;39.10;;;;;;5010316;28;20048;-61
2021/05/27 10:59:03;;;;;;;4.20;2.85;;;23.70;39.10;;;;;;5012496;28;20096;-59
2021/05/27 11:01:29;;;;;;;7.45;3.38;;;23.60;39.00;;;;;;5011964;28;20175;-55
2021/05/27 11:03:57;;;;;;;6.75;3.42;;;23.70;39.10;;;;;;5011773;28;20037;-58
2021/05/27 11:06:23;;;;;;;4.90;3.17;;;23.70;39.00;;;;;;5009302;28;20011;-60
2021/05/27 11:09:16;;;;;;;7.25;4.03;;;23.70;38.90;;;;;;5013488;28;20037;-64
2021/05/27 11:12:15;;;;;;;4.88;3.85;;;23.80;39.00;;;;;;5013249;28;20164;-60
2021/05/27 11:14:50;;;;;;;5.25;4.15;;;23.90;39.10;;;;;;5003513;28;20718;-64
2021/05/27 11:17:22;;;;;;;4.97;4.07;;;24.00;39.20;;;;;;5015215;28;20057;-62
2021/05/27 11:20:08;;;;;;;7.32;4.30;;;24.10;39.20;;;;;;5012187;28;20438;-64
2021/05/27 11:25:13;;;;;;;5.28;4.43;;;24.40;39.30;;;;;;5012769;28;20030;-57
2021/05/27 11:27:59;;;;;;;7.32;4.70;;;24.40;39.30;;;;;;5013252;28;20041;-60
2021/05/27 11:30:39;;;;;;;5.65;4.65;;;24.50;39.30;;;;;;5010659;28;20432;-61
2021/05/27 11:33:11;;;;;;;5.25;4.53;;;24.60;39.40;;;;;;5011211;28;20025;-64
2021/05/27 11:35:43;;;;;;;5.75;4.55;;;24.60;39.30;;;;;;5012535;28;20038;-62
2021/05/27 11:38:15;;;;;;;5.63;4.82;;;24.60;39.30;;;;;;5011035;28;20032;-58
2021/05/27 11:40:47;;;;;;;5.95;4.80;;;24.70;39.30;;;;;;5013243;28;20088;-59
2021/05/27 11:43:15;;;;;;;6.13;5.20;;;24.70;39.30;;;;;;5012364;28;20029;-62
2021/05/27 11:45:46;;;;;;;5.97;5.38;;;24.70;39.30;;;;;;5012767;28;20036;-51
2021/05/27 11:48:17;;;;;;;6.07;5.47;;;24.80;39.30;;;;;;5011811;28;20021;-58
2021/05/27 11:50:43;;;;;;;6.30;5.20;;;24.80;39.30;;;;;;5010605;28;20116;-61
2021/05/27 11:53:10;;;;;;;5.97;5.35;;;24.80;39.30;;;;;;5012925;28;20033;-61
2021/05/27 11:55:37;;;;;;;6.22;5.20;;;24.80;39.20;;;;;;5008540;28;20384;-58
2021/05/27 11:58:04;;;;;;;6.38;5.15;;;24.80;39.10;;;;;;5014667;28;20029;-61
2021/05/27 12:00:30;;;;;;;5.38;4.55;;;24.80;39.00;;;;;;5011466;28;20034;-61
2021/05/27 12:02:59;;;;;;;5.53;4.50;;;24.80;39.00;;;;;;5011818;28;20037;-62
2021/05/27 12:05:28;;;;;;;5.20;4.65;;;24.80;39.00;;;;;;5012348;28;20100;-59
2021/05/27 12:08:01;;;;;;;5.20;4.65;;;24.80;38.80;;;;;;5009777;28;20061;-61
2021/05/27 12:10:34;;;;;;;5.68;4.28;;;24.80;38.80;;;;;;5012402;28;20029;-63
2021/05/27 12:13:00;;;;;;;5.07;4.07;;;24.80;38.80;;;;;;5012284;28;20109;-62
2021/05/27 12:15:27;;;;;;;4.95;3.95;;;24.80;38.70;;;;;;5012198;28;20045;-63
2021/05/27 12:17:56;;;;;;;5.15;4.13;;;24.80;38.70;;;;;;5011597;28;20420;-65
2021/05/27 12:20:31;;;;;;;5.35;4.70;;;24.70;38.60;;;;;;5010852;28;20034;-61
2021/05/27 12:23:04;;;;;;;4.63;4.03;;;24.70;38.50;;;;;;5011629;28;20361;-61
2021/05/27 12:25:32;;;;;;;5.13;4.20;;;24.70;38.50;;;;;;5009194;28;20461;-62
2021/05/27 12:28:04;;;;;;;4.82;4.32;;;24.70;38.50;;;;;;5010487;28;20438;-63
2021/05/27 12:30:35;;;;;;;5.22;4.30;;;24.70;38.50;;;;;;5010930;28;20034;-65
2021/05/27 12:33:03;;;;;;;5.95;5.00;;;24.70;38.60;;;;;;5012138;28;20026;-67
2021/05/27 12:35:35;;;;;;;5.40;4.75;;;24.70;38.70;;;;;;5027261;28;20021;-68
2021/05/27 12:38:04;;;;;;;5.28;4.43;;;24.70;38.90;;;;;;5012358;28;20021;-65
2021/05/27 12:40:39;;;;;;;5.60;5.03;;;24.70;38.90;;;;;;4994546;28;20049;-63
2021/05/27 12:43:26;;;;;;;5.10;4.55;;;24.70;39.00;;;;;;5011736;28;20021;-65
2021/05/27 12:45:56;;;;;;;5.60;4.55;;;24.70;39.20;;;;;;5009555;28;20036;-65
2021/05/27 12:48:25;;;;;;;5.10;4.45;;;24.70;39.20;;;;;;5012698;28;20434;-65
2021/05/27 12:50:50;;;;;;;6.13;4.90;;;24.70;39.30;;;;;;4995312;28;20068;-64
2021/05/27 12:53:33;;;;;;;5.63;5.00;;;24.70;39.30;;;;;;5012113;28;20054;-64
2021/05/27 12:56:25;;;;;;;5.78;4.78;;;24.70;39.30;;;;;;5010213;28;20330;-65
2021/05/27 12:59:02;;;;;;;5.78;5.20;;;24.70;39.30;;;;;;5010154;28;20026;-67
2021/05/27 13:01:37;;;;;;;6.47;5.35;;;24.70;39.40;;;;;;5009815;28;20037;-62
2021/05/27 13:04:05;;;;;;;5.63;5.13;;;24.70;39.40;;;;;;5010748;28;20442;-53
2021/05/27 13:06:35;;;;;;;7.43;6.72;;;24.70;39.40;;;;;;5015793;28;20053;-61